sensor_id;sensor_type;location;lat;lon;timestamp;pressure;altitude;pressure_sealevel;temperature;humidity
75051;BME280;63628;47.656;11.310;2022-10-26T00:00:52;94895.34;;;12.96;75.98
75051;BME280;63628;47.656;11.310;2022-10-26T00:03:18;94896.00;;;13.04;75.73
75051;BME280;63628;47.656;11.310;2022-10-26T00:05:45;94902.50;;;13.13;75.32
75051;BME280;63628;47.656;11.310;2022-10-26T00:08:11;94899.53;;;13.09;75.61
75051;BME280;63628;47.656;11.310;2022-10-26T00:10:38;94894.72;;;12.73;75.77
75051;BME280;63628;47.656;11.310;2022-10-26T00:13:08;94899.44;;;13.04;75.67
75051;BME280;63628;47.656;11.310;2022-10-26T00:15:39;94893.34;;;13.04;76.02
75051;BME280;63628;47.656;11.310;2022-10-26T00:18:07;94895.50;;;13.07;76.00
75051;BME280;63628;47.656;11.310;2022-10-26T00:20:33;94887.38;;;12.96;75.76
75051;BME280;63628;47.656;11.310;2022-10-26T00:23:00;94886.34;;;12.14;77.34
75051;BME280;63628;47.656;11.310;2022-10-26T00:25:26;94891.97;;;12.84;76.87
75051;BME280;63628;47.656;11.310;2022-10-26T00:27:53;94894.63;;;13.01;76.38
75051;BME280;63628;47.656;11.310;2022-10-26T00:30:19;94896.56;;;13.06;75.88
75051;BME280;63628;47.656;11.310;2022-10-26T00:32:46;94893.91;;;13.06;76.09
75051;BME280;63628;47.656;11.310;2022-10-26T00:35:12;94897.06;;;12.69;75.68
75051;BME280;63628;47.656;11.310;2022-10-26T00:37:54;94892.13;;;12.11;77.94
75051;BME280;63628;47.656;11.310;2022-10-26T00:40:25;94893.06;;;11.36;82.45
75051;BME280;63628;47.656;11.310;2022-10-26T00:42:52;94895.03;;;11.29;84.24
75051;BME280;63628;47.656;11.310;2022-10-26T00:45:22;94891.84;;;12.57;78.40
75051;BME280;63628;47.656;11.310;2022-10-26T00:50:26;94901.13;;;12.93;76.21
75051;BME280;63628;47.656;11.310;2022-10-26T00:52:54;94902.00;;;12.99;75.81
75051;BME280;63628;47.656;11.310;2022-10-26T00:55:26;94900.97;;;13.00;76.24
75051;BME280;63628;47.656;11.310;2022-10-26T00:57:55;94894.84;;;12.99;76.45
75051;BME280;63628;47.656;11.310;2022-10-26T01:00:21;94904.06;;;12.75;76.29
75051;BME280;63628;47.656;11.310;2022-10-26T01:02:49;94897.34;;;12.05;79.86
75051;BME280;63628;47.656;11.310;2022-10-26T01:05:18;94895.78;;;12.72;77.59
75051;BME280;63628;47.656;11.310;2022-10-26T01:07:45;94897.44;;;12.94;76.27
75051;BME280;63628;47.656;11.310;2022-10-26T01:10:13;94916.09;;;12.99;76.04
75051;BME280;63628;47.656;11.310;2022-10-26T01:12:40;94919.91;;;13.04;75.86
75051;BME280;63628;47.656;11.310;2022-10-26T01:15:08;94898.84;;;12.63;76.48
75051;BME280;63628;47.656;11.310;2022-10-26T01:17:56;94905.88;;;12.91;77.07
75051;BME280;63628;47.656;11.310;2022-10-26T01:20:50;94905.97;;;12.96;76.54
75051;BME280;63628;47.656;11.310;2022-10-26T01:23:30;94910.22;;;12.97;76.41
75051;BME280;63628;47.656;11.310;2022-10-26T01:26:26;94920.16;;;13.02;76.40
75051;BME280;63628;47.656;11.310;2022-10-26T01:32:07;94912.44;;;12.67;76.83
75051;BME280;63628;47.656;11.310;2022-10-26T01:35:27;94918.47;;;12.79;75.30
75051;BME280;63628;47.656;11.310;2022-10-26T01:37:29;94917.56;;;12.90;76.85
75051;BME280;63628;47.656;11.310;2022-10-26T01:43:03;94929.31;;;12.94;76.71
75051;BME280;63628;47.656;11.310;2022-10-26T01:45:33;94942.91;;;12.98;76.66
75051;BME280;63628;47.656;11.310;2022-10-26T01:48:02;94960.47;;;12.99;76.20
75051;BME280;63628;47.656;11.310;2022-10-26T01:50:30;94970.09;;;11.58;81.57
75051;BME280;63628;47.656;11.310;2022-10-26T01:52:57;94975.31;;;11.29;84.78
75051;BME280;63628;47.656;11.310;2022-10-26T01:55:49;94972.72;;;11.69;82.63
75051;BME280;63628;47.656;11.310;2022-10-26T01:58:40;94971.00;;;12.15;79.36
75051;BME280;63628;47.656;11.310;2022-10-26T02:07:01;94991.19;;;12.45;77.61
75051;BME280;63628;47.656;11.310;2022-10-26T02:09:44;94985.09;;;12.61;77.60
75051;BME280;63628;47.656;11.310;2022-10-26T02:12:20;94999.41;;;12.77;77.12
75051;BME280;63628;47.656;11.310;2022-10-26T02:14:55;94996.34;;;12.68;77.10
75051;BME280;63628;47.656;11.310;2022-10-26T02:17:50;95005.13;;;12.85;77.01
75051;BME280;63628;47.656;11.310;2022-10-26T02:20:22;94996.38;;;12.85;76.88
75051;BME280;63628;47.656;11.310;2022-10-26T02:22:52;94999.34;;;12.88;77.16
75051;BME280;63628;47.656;11.310;2022-10-26T02:25:26;94992.63;;;12.24;77.75
75051;BME280;63628;47.656;11.310;2022-10-26T02:27:57;94995.41;;;12.74;77.49
75051;BME280;63628;47.656;11.310;2022-10-26T02:30:25;94994.59;;;12.74;77.05
75051;BME280;63628;47.656;11.310;2022-10-26T02:32:54;94995.31;;;12.86;76.34
75051;BME280;63628;47.656;11.310;2022-10-26T02:35:26;94992.09;;;12.84;75.95
75051;BME280;63628;47.656;11.310;2022-10-26T02:37:56;94983.16;;;12.90;76.61
75051;BME280;63628;47.656;11.310;2022-10-26T02:40:26;94968.59;;;12.76;76.75
75051;BME280;63628;47.656;11.310;2022-10-26T02:42:56;94962.41;;;12.87;76.56
75051;BME280;63628;47.656;11.310;2022-10-26T02:45:27;94971.16;;;12.87;76.12
75051;BME280;63628;47.656;11.310;2022-10-26T02:47:56;94965.28;;;12.85;76.49
75051;BME280;63628;47.656;11.310;2022-10-26T02:50:30;94957.16;;;12.92;76.11
75051;BME280;63628;47.656;11.310;2022-10-26T02:53:09;94949.75;;;12.94;76.26
75051;BME280;63628;47.656;11.310;2022-10-26T02:55:45;94947.91;;;12.94;76.14
75051;BME280;63628;47.656;11.310;2022-10-26T02:58:19;94941.78;;;12.94;76.06
75051;BME280;63628;47.656;11.310;2022-10-26T03:00:49;94930.94;;;12.79;74.81
75051;BME280;63628;47.656;11.310;2022-10-26T03:03:17;94929.66;;;12.81;75.37
75051;BME280;63628;47.656;11.310;2022-10-26T03:05:44;94929.97;;;11.78;80.41
75051;BME280;63628;47.656;11.310;2022-10-26T03:08:11;94927.31;;;12.51;78.04
75051;BME280;63628;47.656;11.310;2022-10-26T03:10:42;94922.31;;;12.72;75.66
75051;BME280;63628;47.656;11.310;2022-10-26T03:13:10;94916.13;;;12.04;80.21
75051;BME280;63628;47.656;11.310;2022-10-26T03:15:37;94915.09;;;12.67;77.48
75051;BME280;63628;47.656;11.310;2022-10-26T03:18:04;94915.78;;;12.29;78.04
75051;BME280;63628;47.656;11.310;2022-10-26T03:20:32;94915.09;;;12.67;77.47
75051;BME280;63628;47.656;11.310;2022-10-26T03:22:59;94917.72;;;12.84;76.65
75051;BME280;63628;47.656;11.310;2022-10-26T03:25:26;94900.75;;;12.85;76.67
75051;BME280;63628;47.656;11.310;2022-10-26T03:27:59;94911.44;;;12.90;76.36
75051;BME280;63628;47.656;11.310;2022-10-26T03:30:27;94907.97;;;12.89;76.42
75051;BME280;63628;47.656;11.310;2022-10-26T03:32:54;94905.28;;;12.67;74.76
75051;BME280;63628;47.656;11.310;2022-10-26T03:35:21;94913.38;;;11.70;81.61
75051;BME280;63628;47.656;11.310;2022-10-26T03:37:48;94899.88;;;12.46;77.56
75051;BME280;63628;47.656;11.310;2022-10-26T03:40:15;94909.91;;;10.83;83.29
75051;BME280;63628;47.656;11.310;2022-10-26T03:42:42;94907.00;;;12.28;79.30
75051;BME280;63628;47.656;11.310;2022-10-26T03:45:08;94911.31;;;12.63;77.41
75051;BME280;63628;47.656;11.310;2022-10-26T03:47:45;94906.72;;;12.42;76.67
75051;BME280;63628;47.656;11.310;2022-10-26T03:50:14;94911.75;;;11.81;78.94
75051;BME280;63628;47.656;11.310;2022-10-26T03:52:41;94920.50;;;11.70;79.60
75051;BME280;63628;47.656;11.310;2022-10-26T03:55:08;94912.41;;;12.33;78.84
75051;BME280;63628;47.656;11.310;2022-10-26T03:57:40;94926.88;;;11.57;80.15
75051;BME280;63628;47.656;11.310;2022-10-26T04:00:08;94919.91;;;12.08;79.87
75051;BME280;63628;47.656;11.310;2022-10-26T04:02:34;94918.00;;;12.03;78.54
75051;BME280;63628;47.656;11.310;2022-10-26T04:05:01;94923.50;;;12.30;78.15
75051;BME280;63628;47.656;11.310;2022-10-26T04:07:27;94921.94;;;12.63;77.41
75051;BME280;63628;47.656;11.310;2022-10-26T04:09:54;94925.44;;;11.90;79.14
75051;BME280;63628;47.656;11.310;2022-10-26T04:12:20;94926.72;;;11.64;81.80
75051;BME280;63628;47.656;11.310;2022-10-26T04:14:47;94928.13;;;12.52;77.66
75051;BME280;63628;47.656;11.310;2022-10-26T04:17:13;94925.88;;;12.60;77.21
75051;BME280;63628;47.656;11.310;2022-10-26T04:19:40;94934.81;;;12.54;77.47
75051;BME280;63628;47.656;11.310;2022-10-26T04:22:06;94933.19;;;12.70;76.72
75051;BME280;63628;47.656;11.310;2022-10-26T04:24:32;94932.94;;;12.10;79.80
75051;BME280;63628;47.656;11.310;2022-10-26T04:26:59;94939.63;;;12.57;77.72
75051;BME280;63628;47.656;11.310;2022-10-26T04:29:25;94934.00;;;12.70;77.67
75051;BME280;63628;47.656;11.310;2022-10-26T04:31:52;94925.88;;;12.77;76.52
75051;BME280;63628;47.656;11.310;2022-10-26T04:34:18;94933.28;;;12.75;76.99
75051;BME280;63628;47.656;11.310;2022-10-26T04:36:45;94935.69;;;12.77;76.89
75051;BME280;63628;47.656;11.310;2022-10-26T04:39:11;94937.53;;;12.76;77.08
75051;BME280;63628;47.656;11.310;2022-10-26T04:41:37;94938.34;;;12.77;76.43
75051;BME280;63628;47.656;11.310;2022-10-26T04:44:04;94944.69;;;12.76;77.12
75051;BME280;63628;47.656;11.310;2022-10-26T04:46:30;94959.34;;;12.78;76.37
75051;BME280;63628;47.656;11.310;2022-10-26T04:48:57;94969.72;;;12.80;75.82
75051;BME280;63628;47.656;11.310;2022-10-26T04:51:23;94974.00;;;12.81;76.56
75051;BME280;63628;47.656;11.310;2022-10-26T04:53:52;94989.69;;;12.82;76.32
75051;BME280;63628;47.656;11.310;2022-10-26T04:56:19;94994.88;;;12.44;77.98
75051;BME280;63628;47.656;11.310;2022-10-26T04:58:45;94995.09;;;11.73;81.39
75051;BME280;63628;47.656;11.310;2022-10-26T05:01:12;95004.78;;;12.48;78.16
75051;BME280;63628;47.656;11.310;2022-10-26T05:03:38;95023.44;;;12.53;78.07
75051;BME280;63628;47.656;11.310;2022-10-26T05:06:05;95044.06;;;12.63;77.48
75051;BME280;63628;47.656;11.310;2022-10-26T05:08:31;95060.94;;;12.57;77.90
75051;BME280;63628;47.656;11.310;2022-10-26T05:10:58;95082.03;;;12.63;77.19
75051;BME280;63628;47.656;11.310;2022-10-26T05:13:24;95082.31;;;12.79;77.21
75051;BME280;63628;47.656;11.310;2022-10-26T05:15:52;95091.03;;;13.53;71.39
75051;BME280;63628;47.656;11.310;2022-10-26T05:18:19;95106.16;;;12.90;76.63
75051;BME280;63628;47.656;11.310;2022-10-26T05:20:45;95112.38;;;12.96;74.83
75051;BME280;63628;47.656;11.310;2022-10-26T05:23:15;95112.81;;;13.05;74.93
75051;BME280;63628;47.656;11.310;2022-10-26T05:25:44;95117.59;;;12.91;76.02
75051;BME280;63628;47.656;11.310;2022-10-26T05:28:11;95111.94;;;13.16;73.77
75051;BME280;63628;47.656;11.310;2022-10-26T05:30:39;95102.28;;;13.10;74.13
75051;BME280;63628;47.656;11.310;2022-10-26T05:33:09;95109.44;;;13.09;74.49
75051;BME280;63628;47.656;11.310;2022-10-26T05:35:36;95110.19;;;12.93;75.72
75051;BME280;63628;47.656;11.310;2022-10-26T05:38:16;95134.00;;;12.88;75.47
75051;BME280;63628;47.656;11.310;2022-10-26T05:40:50;95132.41;;;12.87;76.03
75051;BME280;63628;47.656;11.310;2022-10-26T05:43:17;95135.78;;;12.82;76.99
75051;BME280;63628;47.656;11.310;2022-10-26T05:45:44;95127.81;;;12.82;76.45
75051;BME280;63628;47.656;11.310;2022-10-26T05:48:11;95131.50;;;12.81;76.32
75051;BME280;63628;47.656;11.310;2022-10-26T05:50:37;95140.50;;;12.80;76.62
75051;BME280;63628;47.656;11.310;2022-10-26T05:53:04;95136.81;;;12.81;76.56
75051;BME280;63628;47.656;11.310;2022-10-26T05:55:31;95143.03;;;12.87;76.00
75051;BME280;63628;47.656;11.310;2022-10-26T05:57:58;95144.25;;;12.96;75.75
75051;BME280;63628;47.656;11.310;2022-10-26T06:00:26;95155.97;;;12.83;76.59
75051;BME280;63628;47.656;11.310;2022-10-26T06:05:37;95163.13;;;12.83;76.45
75051;BME280;63628;47.656;11.310;2022-10-26T06:08:09;95164.50;;;12.85;76.26
75051;BME280;63628;47.656;11.310;2022-10-26T06:10:37;95168.44;;;12.83;76.79
75051;BME280;63628;47.656;11.310;2022-10-26T06:13:04;95159.53;;;12.89;78.61
75051;BME280;63628;47.656;11.310;2022-10-26T06:15:37;95151.22;;;12.85;79.57
75051;BME280;63628;47.656;11.310;2022-10-26T06:18:32;95124.00;;;12.78;77.35
75051;BME280;63628;47.656;11.310;2022-10-26T06:21:11;95137.38;;;12.83;76.99
75051;BME280;63628;47.656;11.310;2022-10-26T06:23:56;95127.66;;;12.89;76.68
75051;BME280;63628;47.656;11.310;2022-10-26T06:26:36;95130.69;;;12.81;77.39
75051;BME280;63628;47.656;11.310;2022-10-26T06:32:02;95127.81;;;12.82;77.09
75051;BME280;63628;47.656;11.310;2022-10-26T06:34:33;95127.56;;;12.84;77.07
75051;BME280;63628;47.656;11.310;2022-10-26T06:37:00;95135.53;;;12.84;76.90
75051;BME280;63628;47.656;11.310;2022-10-26T06:39:30;95120.72;;;12.88;76.95
75051;BME280;63628;47.656;11.310;2022-10-26T06:42:00;95131.69;;;12.91;78.30
75051;BME280;63628;47.656;11.310;2022-10-26T06:44:27;95137.00;;;12.91;79.72
75051;BME280;63628;47.656;11.310;2022-10-26T06:47:00;95140.03;;;12.55;82.49
75051;BME280;63628;47.656;11.310;2022-10-26T06:49:35;95130.03;;;12.74;78.10
75051;BME280;63628;47.656;11.310;2022-10-26T06:52:19;95135.38;;;12.90;79.21
75051;BME280;63628;47.656;11.310;2022-10-26T06:54:52;95122.16;;;12.50;85.01
75051;BME280;63628;47.656;11.310;2022-10-26T06:57:27;95125.63;;;12.79;78.21
75051;BME280;63628;47.656;11.310;2022-10-26T07:00:00;95132.41;;;12.87;81.62
75051;BME280;63628;47.656;11.310;2022-10-26T07:02:27;95122.63;;;12.47;85.08
75051;BME280;63628;47.656;11.310;2022-10-26T07:04:54;95131.03;;;12.56;82.31
75051;BME280;63628;47.656;11.310;2022-10-26T07:07:22;95123.69;;;12.75;78.42
75051;BME280;63628;47.656;11.310;2022-10-26T07:09:50;95126.75;;;12.83;77.96
75051;BME280;63628;47.656;11.310;2022-10-26T07:12:17;95128.28;;;12.79;83.93
75051;BME280;63628;47.656;11.310;2022-10-26T07:14:43;95128.41;;;12.73;79.17
75051;BME280;63628;47.656;11.310;2022-10-26T07:17:10;95138.84;;;12.91;77.83
75051;BME280;63628;47.656;11.310;2022-10-26T07:19:37;95130.06;;;12.90;83.06
75051;BME280;63628;47.656;11.310;2022-10-26T07:22:05;95125.22;;;12.87;80.40
75051;BME280;63628;47.656;11.310;2022-10-26T07:24:32;95135.69;;;12.77;82.84
75051;BME280;63628;47.656;11.310;2022-10-26T07:26:58;95133.13;;;12.82;80.35
75051;BME280;63628;47.656;11.310;2022-10-26T07:29:25;95135.78;;;12.82;80.58
75051;BME280;63628;47.656;11.310;2022-10-26T07:31:52;95134.81;;;12.88;78.15
75051;BME280;63628;47.656;11.310;2022-10-26T07:34:23;95137.00;;;12.91;77.90
75051;BME280;63628;47.656;11.310;2022-10-26T07:36:50;95135.44;;;13.07;79.36
75051;BME280;63628;47.656;11.310;2022-10-26T07:39:17;95137.88;;;13.09;80.94
75051;BME280;63628;47.656;11.310;2022-10-26T07:41:44;95154.63;;;13.09;83.52
75051;BME280;63628;47.656;11.310;2022-10-26T07:44:10;95145.63;;;12.98;84.21
75051;BME280;63628;47.656;11.310;2022-10-26T07:46:37;95141.50;;;12.91;79.25
75051;BME280;63628;47.656;11.310;2022-10-26T07:49:03;95133.88;;;13.23;83.23
75051;BME280;63628;47.656;11.310;2022-10-26T07:51:30;95130.63;;;12.92;78.52
75051;BME280;63628;47.656;11.310;2022-10-26T07:53:56;95125.31;;;12.92;78.13
75051;BME280;63628;47.656;11.310;2022-10-26T07:56:23;95133.63;;;12.96;77.91
75051;BME280;63628;47.656;11.310;2022-10-26T07:58:51;95125.66;;;12.96;77.72
75051;BME280;63628;47.656;11.310;2022-10-26T08:01:18;95127.88;;;13.16;81.13
75051;BME280;63628;47.656;11.310;2022-10-26T08:03:45;95133.56;;;13.36;83.58
75051;BME280;63628;47.656;11.310;2022-10-26T08:06:12;95126.72;;;13.40;85.25
75051;BME280;63628;47.656;11.310;2022-10-26T08:08:39;95122.41;;;13.06;79.46
75051;BME280;63628;47.656;11.310;2022-10-26T08:11:13;95112.50;;;13.01;78.63
75051;BME280;63628;47.656;11.310;2022-10-26T08:13:39;95105.69;;;12.93;77.72
75051;BME280;63628;47.656;11.310;2022-10-26T08:16:06;95119.28;;;12.97;77.75
75051;BME280;63628;47.656;11.310;2022-10-26T08:18:32;95117.44;;;12.97;77.42
75051;BME280;63628;47.656;11.310;2022-10-26T08:21:04;95123.31;;;12.99;77.67
75051;BME280;63628;47.656;11.310;2022-10-26T08:23:38;95120.31;;;13.08;78.13
75051;BME280;63628;47.656;11.310;2022-10-26T08:26:04;95109.16;;;13.22;77.14
75051;BME280;63628;47.656;11.310;2022-10-26T08:28:31;95117.75;;;13.13;78.76
75051;BME280;63628;47.656;11.310;2022-10-26T08:30:58;95118.75;;;13.57;78.95
75051;BME280;63628;47.656;11.310;2022-10-26T08:33:24;95119.31;;;13.59;78.02
75051;BME280;63628;47.656;11.310;2022-10-26T08:36:02;95113.44;;;13.23;77.63
75051;BME280;63628;47.656;11.310;2022-10-26T08:38:29;95116.25;;;13.17;77.54
75051;BME280;63628;47.656;11.310;2022-10-26T08:40:56;95116.44;;;13.15;77.65
75051;BME280;63628;47.656;11.310;2022-10-26T08:43:36;95126.59;;;14.02;76.25
75051;BME280;63628;47.656;11.310;2022-10-26T08:46:38;95137.78;;;14.21;79.04
75051;BME280;63628;47.656;11.310;2022-10-26T08:49:21;95137.78;;;13.82;77.19
75051;BME280;63628;47.656;11.310;2022-10-26T08:51:52;95142.09;;;13.21;77.71
75051;BME280;63628;47.656;11.310;2022-10-26T08:54:31;95138.16;;;13.57;77.86
75051;BME280;63628;47.656;11.310;2022-10-26T08:57:09;95142.56;;;13.18;77.87
75051;BME280;63628;47.656;11.310;2022-10-26T08:59:52;95146.78;;;13.98;80.92
75051;BME280;63628;47.656;11.310;2022-10-26T09:02:19;95158.00;;;13.83;76.37
75051;BME280;63628;47.656;11.310;2022-10-26T09:04:46;95157.38;;;13.76;77.81
75051;BME280;63628;47.656;11.310;2022-10-26T09:07:28;95164.50;;;13.25;77.57
75051;BME280;63628;47.656;11.310;2022-10-26T09:10:03;95162.88;;;13.24;77.78
75051;BME280;63628;47.656;11.310;2022-10-26T09:20:58;95201.28;;;14.12;75.19
75051;BME280;63628;47.656;11.310;2022-10-26T09:26:23;95211.63;;;13.75;75.36
75051;BME280;63628;47.656;11.310;2022-10-26T09:28:53;95193.53;;;13.44;76.51
75051;BME280;63628;47.656;11.310;2022-10-26T09:31:20;95177.06;;;14.47;70.18
75051;BME280;63628;47.656;11.310;2022-10-26T09:33:48;95183.91;;;14.26;70.22
75051;BME280;63628;47.656;11.310;2022-10-26T09:36:21;95159.38;;;13.69;74.83
75051;BME280;63628;47.656;11.310;2022-10-26T09:39:03;95161.81;;;14.43;70.07
75051;BME280;63628;47.656;11.310;2022-10-26T09:41:39;95168.41;;;13.85;74.05
75051;BME280;63628;47.656;11.310;2022-10-26T09:44:18;95170.00;;;13.52;76.05
75051;BME280;63628;47.656;11.310;2022-10-26T09:47:03;95170.34;;;13.73;77.37
75051;BME280;63628;47.656;11.310;2022-10-26T09:50:05;95181.03;;;13.44;76.57
75051;BME280;63628;47.656;11.310;2022-10-26T09:52:32;95175.19;;;13.76;75.76
75051;BME280;63628;47.656;11.310;2022-10-26T09:54:59;95173.28;;;14.65;78.02
75051;BME280;63628;47.656;11.310;2022-10-26T09:57:26;95169.72;;;15.30;72.47
75051;BME280;63628;47.656;11.310;2022-10-26T09:59:53;95176.00;;;14.70;71.10
75051;BME280;63628;47.656;11.310;2022-10-26T10:02:34;95203.53;;;14.20;74.09
75051;BME280;63628;47.656;11.310;2022-10-26T10:05:01;95216.38;;;13.73;75.89
75051;BME280;63628;47.656;11.310;2022-10-26T10:07:28;95221.16;;;13.59;75.84
75051;BME280;63628;47.656;11.310;2022-10-26T10:10:27;95233.22;;;14.46;74.99
75051;BME280;63628;47.656;11.310;2022-10-26T10:12:53;95236.06;;;15.48;73.99
75051;BME280;63628;47.656;11.310;2022-10-26T10:15:22;95244.88;;;14.62;73.62
75051;BME280;63628;47.656;11.310;2022-10-26T10:17:50;95239.19;;;14.03;77.19
75051;BME280;63628;47.656;11.310;2022-10-26T10:20:21;95220.81;;;13.68;76.83
75051;BME280;63628;47.656;11.310;2022-10-26T10:22:53;95206.78;;;14.61;71.23
75051;BME280;63628;47.656;11.310;2022-10-26T10:25:32;95214.44;;;13.69;76.00
75051;BME280;63628;47.656;11.310;2022-10-26T10:27:59;95217.56;;;13.99;76.30
75051;BME280;63628;47.656;11.310;2022-10-26T10:30:32;95215.97;;;13.98;75.34
75051;BME280;63628;47.656;11.310;2022-10-26T10:33:08;95224.84;;;14.98;77.68
75051;BME280;63628;47.656;11.310;2022-10-26T10:35:39;95217.66;;;14.04;75.42
75051;BME280;63628;47.656;11.310;2022-10-26T10:38:17;95206.16;;;18.44;69.55
75051;BME280;63628;47.656;11.310;2022-10-26T10:41:17;95200.06;;;20.40;62.15
75051;BME280;63628;47.656;11.310;2022-10-26T10:43:47;95208.22;;;19.42;61.73
75051;BME280;63628;47.656;11.310;2022-10-26T10:46:20;95210.53;;;19.14;62.51
75051;BME280;63628;47.656;11.310;2022-10-26T10:48:51;95221.97;;;18.35;58.75
75051;BME280;63628;47.656;11.310;2022-10-26T10:51:20;95226.88;;;15.88;68.92
75051;BME280;63628;47.656;11.310;2022-10-26T10:53:49;95230.59;;;14.89;72.86
75051;BME280;63628;47.656;11.310;2022-10-26T11:01:46;95225.44;;;15.75;77.10
75051;BME280;63628;47.656;11.310;2022-10-26T11:05:06;95216.09;;;18.08;67.77
75051;BME280;63628;47.656;11.310;2022-10-26T11:07:24;95224.41;;;19.26;65.51
75051;BME280;63628;47.656;11.310;2022-10-26T11:09:52;95208.00;;;19.82;60.16
75051;BME280;63628;47.656;11.310;2022-10-26T11:12:31;95226.25;;;17.75;64.48
75051;BME280;63628;47.656;11.310;2022-10-26T11:15:12;95233.88;;;16.73;68.97
75051;BME280;63628;47.656;11.310;2022-10-26T11:20:20;95225.47;;;17.95;64.96
75051;BME280;63628;47.656;11.310;2022-10-26T11:25:28;95227.41;;;17.11;66.53
75051;BME280;63628;47.656;11.310;2022-10-26T11:27:59;95233.53;;;16.60;68.03
75051;BME280;63628;47.656;11.310;2022-10-26T11:30:29;95241.09;;;16.73;69.78
75051;BME280;63628;47.656;11.310;2022-10-26T11:36:01;95242.84;;;17.77;68.57
75051;BME280;63628;47.656;11.310;2022-10-26T11:38:39;95239.66;;;18.16;66.22
75051;BME280;63628;47.656;11.310;2022-10-26T11:41:34;95243.94;;;18.06;65.72
75051;BME280;63628;47.656;11.310;2022-10-26T11:44:04;95250.09;;;18.07;66.60
75051;BME280;63628;47.656;11.310;2022-10-26T11:46:39;95263.75;;;18.11;68.87
75051;BME280;63628;47.656;11.310;2022-10-26T11:54:44;95253.88;;;18.21;66.98
75051;BME280;63628;47.656;11.310;2022-10-26T11:57:03;95273.66;;;18.00;65.19
75051;BME280;63628;47.656;11.310;2022-10-26T11:59:34;95262.16;;;18.10;67.48
75051;BME280;63628;47.656;11.310;2022-10-26T12:02:21;95267.22;;;17.76;69.62
75051;BME280;63628;47.656;11.310;2022-10-26T12:04:53;95285.69;;;16.30;69.45
75051;BME280;63628;47.656;11.310;2022-10-26T12:07:25;95273.69;;;16.33;69.27
75051;BME280;63628;47.656;11.310;2022-10-26T12:09:53;95283.97;;;16.51;68.11
75051;BME280;63628;47.656;11.310;2022-10-26T12:12:31;95292.13;;;15.53;72.29
75051;BME280;63628;47.656;11.310;2022-10-26T12:22:53;95298.22;;;15.49;72.27
75051;BME280;63628;47.656;11.310;2022-10-26T12:25:20;95300.63;;;16.63;68.95
75051;BME280;63628;47.656;11.310;2022-10-26T12:38:03;95296.97;;;17.89;60.41
75051;BME280;63628;47.656;11.310;2022-10-26T12:40:48;95292.13;;;17.76;62.03
75051;BME280;63628;47.656;11.310;2022-10-26T12:43:37;95288.38;;;17.87;61.20
75051;BME280;63628;47.656;11.310;2022-10-26T12:48:43;95301.69;;;17.62;62.19
75051;BME280;63628;47.656;11.310;2022-10-26T12:54:09;95304.81;;;17.38;62.91
75051;BME280;63628;47.656;11.310;2022-10-26T12:56:50;95306.84;;;17.16;64.73
75051;BME280;63628;47.656;11.310;2022-10-26T12:59:25;95302.97;;;17.54;62.57
75051;BME280;63628;47.656;11.310;2022-10-26T13:04:52;95309.47;;;17.63;59.40
75051;BME280;63628;47.656;11.310;2022-10-26T13:07:24;95309.13;;;17.55;61.50
75051;BME280;63628;47.656;11.310;2022-10-26T13:09:56;95316.06;;;15.92;70.04
75051;BME280;63628;47.656;11.310;2022-10-26T13:12:24;95320.38;;;15.49;71.88
75051;BME280;63628;47.656;11.310;2022-10-26T13:15:28;95325.72;;;15.98;72.07
75051;BME280;63628;47.656;11.310;2022-10-26T13:20:36;95325.84;;;15.81;70.87
75051;BME280;63628;47.656;11.310;2022-10-26T13:23:26;95326.72;;;16.51;72.30
75051;BME280;63628;47.656;11.310;2022-10-26T13:26:07;95327.81;;;16.23;70.24
75051;BME280;63628;47.656;11.310;2022-10-26T13:33:51;95340.03;;;17.15;67.90
75051;BME280;63628;47.656;11.310;2022-10-26T13:36:26;95348.28;;;15.85;72.06
75051;BME280;63628;47.656;11.310;2022-10-26T13:38:57;95344.13;;;16.54;71.50
75051;BME280;63628;47.656;11.310;2022-10-26T13:41:35;95339.47;;;17.13;71.37
75051;BME280;63628;47.656;11.310;2022-10-26T13:44:04;95347.56;;;17.23;71.50
75051;BME280;63628;47.656;11.310;2022-10-26T13:46:35;95344.84;;;16.44;69.84
75051;BME280;63628;47.656;11.310;2022-10-26T13:49:07;95350.31;;;15.57;73.63
75051;BME280;63628;47.656;11.310;2022-10-26T13:51:46;95351.38;;;16.26;74.08
75051;BME280;63628;47.656;11.310;2022-10-26T13:54:49;95358.63;;;15.77;72.83
75051;BME280;63628;47.656;11.310;2022-10-26T13:59:47;95355.75;;;16.69;73.50
75051;BME280;63628;47.656;11.310;2022-10-26T14:02:18;95360.75;;;16.61;72.56
75051;BME280;63628;47.656;11.310;2022-10-26T14:04:52;95363.63;;;16.86;72.77
75051;BME280;63628;47.656;11.310;2022-10-26T14:07:22;95353.13;;;16.15;71.89
75051;BME280;63628;47.656;11.310;2022-10-26T14:09:54;95359.78;;;15.86;77.83
75051;BME280;63628;47.656;11.310;2022-10-26T14:12:25;95365.47;;;16.22;77.70
75051;BME280;63628;47.656;11.310;2022-10-26T14:15:01;95369.06;;;16.05;73.47
75051;BME280;63628;47.656;11.310;2022-10-26T14:17:29;95367.63;;;15.71;74.66
75051;BME280;63628;47.656;11.310;2022-10-26T14:19:55;95368.94;;;15.68;74.94
75051;BME280;63628;47.656;11.310;2022-10-26T14:22:25;95365.22;;;15.52;75.51
75051;BME280;63628;47.656;11.310;2022-10-26T14:24:59;95368.00;;;15.41;77.08
75051;BME280;63628;47.656;11.310;2022-10-26T14:27:31;95373.72;;;16.20;73.58
75051;BME280;63628;47.656;11.310;2022-10-26T14:29:58;95374.03;;;15.97;73.26
75051;BME280;63628;47.656;11.310;2022-10-26T14:32:46;95371.91;;;15.72;74.73
75051;BME280;63628;47.656;11.310;2022-10-26T14:35:14;95374.91;;;16.61;71.41
75051;BME280;63628;47.656;11.310;2022-10-26T14:37:59;95367.81;;;16.72;70.67
75051;BME280;63628;47.656;11.310;2022-10-26T14:40:28;95371.84;;;15.67;75.56